• Join FlightAware (Why Join?)
  • Login
  • US Flag 
11:40AM EST


 

Airport Tracker/Info


-or-


 

Live Flight TrackerFlight Track Log ✈ DAL2572 ✈ 29-Jul-2014 ✈ KMSP - KMSO

Flight Track Log - Related Links

Times and Time Zones

All times are in EDT time to prevent confusion due to time zone crossing. See the DAL2572 flight status page for this flight to view local times or setup timezone preferences in your user account.

Time Position Orientation Groundspeed Altitude Reporting Facility
EDT Latitude Longitude Course Direction KTS MPH feet Rate Location/Type
11:03PM 44.9000 -93.2500 288° West 149 171 2,500  Level Minneapolis TRACON
11:03PM 44.9156 -93.2808 305° West 165 190 3,000 1,380 Climbing Minneapolis Center
11:04PM 44.9461 -93.3644 297° West 241 277 4,800 2,400 Climbing Minneapolis Center
11:05PM 45.0042 -93.6363 297° West  Level FlightAware Approximate
11:05PM 44.9750 -93.4614 293° West 266 306 8,000  Level Minneapolis Center
11:06PM 45.0529 -93.7752 295° West  Level FlightAware Approximate
11:06PM 45.0028 -93.5622 291° West 276 318 10,500  Level Minneapolis Center
11:07PM 45.0961 -93.9177 290° West  Level FlightAware Approximate
11:07PM 45.0428 -93.7081 291° West 340 391 12,100  Level Minneapolis Center
11:08PM 45.1294 -94.0657 288° West  Level FlightAware Approximate
11:08PM 45.0792 -93.8394 291° West 358 412 14,600  Level Minneapolis Center
11:09PM 45.1144 -93.9761 290° West 368 423 16,800 2,040 Climbing Minneapolis Center
11:10PM 45.1472 -94.1178 288° West 377 434 18,800 1,800 Climbing Minneapolis Center
11:11PM 45.1828 -94.2636 289° West 389 448 20,500 1,680 Climbing Minneapolis Center
11:12PM 45.2197 -94.4167 289° West 394 453 22,300 1,560 Climbing Minneapolis Center
11:13PM 45.2544 -94.5631 289° West 402 463 23,800 1,320 Climbing Minneapolis Center
11:14PM 45.2886 -94.7336 286° West 415 478 25,100 1,140 Climbing Minneapolis Center
11:15PM 45.3153 -94.8961 283° West 420 483 26,200 1,080 Climbing Minneapolis Center
11:16PM 45.3444 -95.0617 284° West 428 493 27,300 1,020 Climbing Minneapolis Center
11:17PM 45.3781 -95.2650 283° West 438 504 28,400 1,380 Climbing Minneapolis Center
11:18PM 45.4069 -95.4336 284° West 443 510 30,200 1,380 Climbing Minneapolis Center
11:20PM 45.4336 -95.5967 283° West 432 497 31,300 1,080 Climbing Minneapolis Center
11:21PM 45.4606 -95.7575 283° West 422 486 32,500 1,080 Climbing Minneapolis Center
11:22PM 45.4858 -95.9172 283° West 421 484 33,500 960 Climbing Minneapolis Center
11:23PM 45.5114 -96.0719 283° West 409 471 34,500 840 Climbing Minneapolis Center
11:24PM 45.5361 -96.2264 283° West 404 465 35,300 720 Climbing Minneapolis Center
11:25PM 45.5589 -96.3781 282° West 397 457 36,000 300 Climbing Minneapolis Center
11:26PM 45.5878 -96.5572 283° West 393 452 36,000  Level Minneapolis Center
11:27PM 45.6114 -96.7067 283° West 392 451 36,000  Level Minneapolis Center
11:28PM 45.6336 -96.8572 282° West 391 450 36,000  Level Minneapolis Center
11:29PM 45.6581 -97.0058 283° West 390 449 36,000  Level Minneapolis Center
11:30PM 45.6808 -97.1569 282° West 390 449 36,000  Level Minneapolis Center
11:31PM 45.7025 -97.3064 282° West 389 448 36,000  Level Minneapolis Center
11:32PM 45.7253 -97.4550 282° West 388 447 36,000  Level Minneapolis Center
11:33PM 45.7469 -97.6031 282° West 384 442 36,000  Level Minneapolis Center
11:34PM 45.7675 -97.7519 281° West 384 442 36,000  Level Minneapolis Center
11:35PM 45.7933 -97.9300 282° West 383 441 36,000  Level Minneapolis Center
11:36PM 45.8147 -98.0769 282° West 382 440 36,000  Level Minneapolis Center
11:37PM 45.8378 -98.2336 282° West 382 440 36,000  Level Minneapolis Center
11:38PM 45.8578 -98.3819 281° West 382 440 36,000  Level Minneapolis Center
11:39PM 45.8775 -98.5281 281° West 381 438 36,000  Level Minneapolis Center
11:40PM 45.8978 -98.6753 281° West 380 437 36,000  Level Minneapolis Center
11:41PM 45.9178 -98.8247 281° West 380 437 36,000  Level Minneapolis Center
11:42PM 45.9372 -98.9722 281° West 380 437 36,000  Level Minneapolis Center
11:43PM 45.9569 -99.1194 281° West 380 437 36,000  Level Minneapolis Center
11:44PM 45.9764 -99.2669 281° West 380 437 36,000  Level Minneapolis Center
11:45PM 45.9958 -99.4161 281° West 380 437 36,000  Level Minneapolis Center
11:46PM 46.0192 -99.5947 281° West 380 437 36,000  Level Minneapolis Center
11:47PM 46.0378 -99.7442 280° West 380 437 36,000  Level Minneapolis Center
11:48PM 46.0561 -99.8933 280° West 380 437 36,000  Level Minneapolis Center
11:49PM 46.0753 -100.0425 281° West 380 437 36,000  Level Minneapolis Center
11:50PM 46.0931 -100.1925 280° West 382 440 36,000  Level Minneapolis Center
11:51PM 46.1114 -100.3425 280° West 382 440 36,000  Level Minneapolis Center
11:52PM 46.1294 -100.4925 280° West 382 440 36,000  Level Minneapolis Center
11:53PM 46.1467 -100.6436 279° West 382 440 36,000  Level Minneapolis Center
11:54PM 46.1642 -100.7961 279° West 382 440 36,000  Level Minneapolis Center
11:55PM 46.1811 -100.9464 279° West 382 440 36,000  Level Minneapolis Center
11:56PM 46.2025 -101.1264 280° West 382 440 36,000  Level Minneapolis Center
11:57PM 46.2197 -101.2789 279° West 382 440 36,000  Level Minneapolis Center
11:58PM 46.2372 -101.4306 280° West 382 440 36,000  Level Minneapolis Center
11:59PM 46.2542 -101.5828 279° West 382 440 36,000  Level Minneapolis Center
12:00AM 46.2706 -101.7344 279° West 383 441 36,000  Level Minneapolis Center
12:01AM 46.2867 -101.8875 279° West 383 441 36,000  Level Minneapolis Center
12:02AM 46.3039 -102.0428 279° West 386 444 36,000  Level Minneapolis Center
12:03AM 46.3197 -102.1989 278° West 386 444 36,000  Level Minneapolis Center
12:04AM 46.3350 -102.3525 278° West 387 445 36,000  Level Minneapolis Center
12:05AM 46.3511 -102.5056 279° West 386 444 36,000  Level Minneapolis Center
12:06AM 46.3661 -102.6597 278° West 386 444 36,000 -60 Level Minneapolis Center
12:07AM 46.3825 -102.8119 279° West 386 444 35,900 -60 Descending Minneapolis Center
12:08AM 46.3956 -102.9658 277° West 386 444 35,900  Level Minneapolis Center
12:09AM 46.4103 -103.1175 278° West 385 443 36,000  Climbing Minneapolis Center
12:10AM 46.4253 -103.2703 278° West 385 443 35,900  Descending Minneapolis Center
12:11AM 46.4389 -103.4242 277° West 385 443 36,000  Climbing Minneapolis Center
12:12AM 46.4536 -103.6061 277° West 385 443 35,900  Descending Salt Lake Center
12:14AM 46.4678 -103.7589 278° West 385 443 36,000  Climbing Salt Lake Center
12:15AM 46.4806 -103.9083 277° West 382 440 36,000 -60 Level Salt Lake Center
12:16AM 46.4942 -104.0622 277° West 382 440 35,900 -60 Descending Salt Lake Center
12:17AM 46.5061 -104.2172 276° West 382 440 35,900  Level Salt Lake Center
12:18AM 46.5203 -104.3694 278° West 383 441 36,000  Climbing Salt Lake Center
12:19AM 46.5331 -104.5264 277° West 386 444 36,000  Level Salt Lake Center
12:20AM 46.5456 -104.6828 277° West 387 445 36,000  Level Salt Lake Center
12:21AM 46.5586 -104.8364 277° West 387 445 36,000  Level Salt Lake Center
12:22AM 46.5719 -105.0206 276° West 386 444 36,000  Level Salt Lake Center
12:23AM 46.5831 -105.1792 276° West 387 445 36,000  Level Salt Lake Center
12:24AM 46.5958 -105.3381 277° West 392 451 36,000 -240 Level Salt Lake Center
12:25AM 46.6078 -105.4964 276° West 392 451 35,600 -660 Descending Salt Lake Center
12:26AM 46.6211 -105.6500 277° West 392 451 34,700 -960 Descending Salt Lake Center
12:27AM 46.6314 -105.8056 276° West 392 451 33,700 -1,020 Descending Salt Lake Center
12:28AM 46.6422 -105.9664 276° West 392 451 32,700 -840 Descending Salt Lake Center
12:29AM 46.6556 -106.1350 277° West 400 460 32,000 -360 Descending Salt Lake Center
12:30AM 46.6669 -106.3028 276° West 409 471 32,000  Level Salt Lake Center
12:31AM 46.6806 -106.4978 276° West 409 471 32,000  Level Salt Lake Center
12:32AM 46.6903 -106.6606 275° West 409 471 32,000  Level Salt Lake Center
12:33AM 46.7014 -106.8258 276° West 409 471 32,000  Level Salt Lake Center
12:34AM 46.7111 -106.9906 275° West 409 471 32,000  Level Salt Lake Center
12:35AM 46.7214 -107.1536 275° West 409 471 32,000  Level Salt Lake Center
12:36AM 46.7300 -107.3169 274° West 408 470 32,000  Level Salt Lake Center
12:37AM 46.7392 -107.4822 275° West 408 470 32,000  Level Salt Lake Center
12:38AM 46.7486 -107.6472 275° West 410 472 32,000  Level Salt Lake Center
12:39AM 46.7578 -107.8142 275° West 410 472 32,000  Level Salt Lake Center
12:40AM 46.7661 -107.9833 274° West 416 479 32,000  Level Salt Lake Center
12:41AM 46.7761 -108.1825 274° West 416 479 32,000  Level Salt Lake Center
12:42AM 46.7836 -108.3503 274° West 416 479 32,000  Level Salt Lake Center
12:43AM 46.7925 -108.5208 274° West 419 482 32,000  Level Salt Lake Center
12:44AM 46.8003 -108.6883 274° West 419 482 32,000  Level Salt Lake Center
12:45AM 46.8078 -108.8564 274° West 418 481 32,000  Level Salt Lake Center
12:46AM 46.8264 -109.0222 279° West 418 481 32,000 -60 Level Salt Lake Center
12:47AM 46.8472 -109.1764 281° West 414 476 31,900 -60 Descending Salt Lake Center
12:48AM 46.8678 -109.3425 280° West 414 476 31,900  Level Salt Lake Center
12:49AM 46.8858 -109.5092 279° West 414 476 31,900  Level Salt Lake Center
12:50AM 46.9100 -109.7086 280° West 415 478 32,000  Climbing Salt Lake Center
12:51AM 46.9283 -109.8761 279° West 415 478 32,000  Level Salt Lake Center
12:52AM 46.9475 -110.0433 280° West 415 478 32,000 -60 Level Salt Lake Center
12:53AM 46.9653 -110.2106 279° West 415 478 31,900 -60 Descending Salt Lake Center
12:54AM 46.9836 -110.3819 279° West 421 484 31,900  Level Salt Lake Center
12:55AM 47.0022 -110.5503 279° West 422 486 31,900  Level Salt Lake Center
12:56AM 47.0197 -110.7203 279° West 421 484 32,000  Climbing Salt Lake Center
12:57AM 47.0372 -110.8903 279° West 422 486 32,000  Level Salt Lake Center
12:58AM 47.0547 -111.0597 279° West 421 484 32,000 -480 Level Salt Lake Center
12:59AM 47.0719 -111.2325 278° West 423 487 31,100 -1,020 Descending Salt Lake Center
01:00AM 47.0894 -111.4069 278° West 426 490 30,000 -1,020 Descending Salt Lake Center
01:01AM 47.1069 -111.5861 278° West 435 501 29,100 -960 Descending Salt Lake Center
01:02AM 47.1239 -111.7650 278° West 440 506 28,100 -1,140 Descending Salt Lake Center
01:03AM 47.1444 -111.9778 278° West 440 506 26,900 -1,140 Descending Salt Lake Center
01:04AM 47.1600 -112.1525 278° West 437 503 25,900 -1,020 Descending Salt Lake Center
01:06AM 47.1767 -112.3250 278° West 428 493 24,900 -1,020 Descending Salt Lake Center
01:07AM 47.1919 -112.4983 277° West 428 493 23,900 -960 Descending Salt Lake Center
01:08AM 47.2058 -112.6681 277° West 423 487 23,000 -960 Descending Salt Lake Center
01:09AM 47.2217 -112.8383 278° West 423 487 22,000 -1,020 Descending Salt Lake Center
01:10AM 47.2350 -113.0050 277° West 419 482 21,000 -1,020 Descending Salt Lake Center
01:11AM 47.2506 -113.1722 278° West 418 481 20,000 -960 Descending Salt Lake Center
01:12AM 47.2642 -113.3403 277° West 418 481 19,100 -960 Descending Salt Lake Center
01:13AM 47.2764 -113.5031 276° West 401 461 18,100 -900 Descending Salt Lake Center
01:14AM 47.2894 -113.6647 277° West 401 461 17,300 -900 Descending Salt Lake Center
01:15AM 47.3017 -113.8233 277° West 393 452 16,400 -900 Descending Salt Lake Center
01:16AM 47.3139 -113.9772 277° West 382 440 15,500 -1,380 Descending Salt Lake Center
01:17AM 47.3217 -114.1553 274° West 368 423 13,600 -1,440 Descending Salt Lake Center
01:18AM 47.2994 -114.2881 256° West 336 387 12,600 -1,020 Descending Salt Lake Center
01:19AM 47.2636 -114.4017 245° Southwest 312 359 11,600 -1,020 Descending Salt Lake Center
01:20AM 47.2111 -114.4994 232° Southwest 309 356 10,600 -900 Descending Salt Lake Center
01:21AM 47.1417 -114.5178 190° South 274 315 9,800 -660 Descending Salt Lake Center
01:22AM 47.1144 -114.4314 115° Southeast 238 274 9,300 -840 Descending Salt Lake Center
01:23AM 47.0756 -114.3636 130° Southeast 204 235 8,200 -1,380 Descending Salt Lake Center
01:24AM 47.0403 -114.3042 131° Southeast 198 228 6,500 -1,320 Descending Salt Lake Center
01:25AM 47.0086 -114.2497 130° Southeast 182 209 5,600 -840 Descending Salt Lake Center
01:26AM 46.9817 -114.2039 131° Southeast 155 178 4,900 -780 Descending Salt Lake Center
01:27AM 46.9569 -114.1611 130° Southeast 144 166 4,100 -780 Descending Salt Lake Center
01:28AM 46.9283 -114.1131 131° Southeast 144 166 3,400 -720 Descending Salt Lake Center